createdAt,value
2019-01-18T00:00:40.782Z,10.40
2019-01-18T00:01:40.809Z,12.10
2019-01-18T00:02:40.727Z,8.60
2019-01-18T00:03:40.713Z,10.20
2019-01-18T00:05:01.679Z,11.00
2019-01-18T00:05:40.655Z,7.60
2019-01-18T00:06:40.641Z,9.30
2019-01-18T00:07:40.618Z,8.00
2019-01-18T00:08:40.594Z,4.10
2019-01-18T00:09:40.559Z,6.20
2019-01-18T00:11:01.537Z,6.90
2019-01-18T00:11:40.522Z,8.70
2019-01-18T00:12:40.497Z,6.50
2019-01-18T00:13:40.466Z,5.80
2019-01-18T00:14:40.445Z,7.40
2019-01-18T00:15:40.450Z,6.80
2019-01-18T00:17:01.403Z,8.20
2019-01-18T00:17:40.399Z,7.00
2019-01-18T00:18:40.359Z,10.10
2019-01-18T00:19:40.326Z,10.80
2019-01-18T00:20:40.314Z,8.50
2019-01-18T00:21:40.278Z,7.10
2019-01-18T00:23:01.267Z,10.70
2019-01-18T00:23:40.243Z,11.40
2019-01-18T00:24:40.220Z,6.30
2019-01-18T00:25:40.183Z,11.40
2019-01-18T00:26:40.160Z,5.40
2019-01-18T00:27:40.139Z,6.40
2019-01-18T00:29:01.116Z,7.20
2019-01-18T00:29:40.089Z,9.30
2019-01-18T00:30:40.065Z,6.00
2019-01-18T00:31:40.053Z,7.10
2019-01-18T00:32:40.029Z,6.00
2019-01-18T00:33:40.005Z,9.40
2019-01-18T00:35:00.978Z,10.70
2019-01-18T00:35:39.947Z,8.70
2019-01-18T00:36:39.934Z,8.00
2019-01-18T00:37:39.903Z,6.10
2019-01-18T00:38:39.890Z,9.40
2019-01-18T00:39:39.857Z,11.40
2019-01-18T00:41:00.833Z,10.00
2019-01-18T00:41:39.811Z,9.70
2019-01-18T00:42:39.786Z,7.00
2019-01-18T00:43:39.763Z,11.20
2019-01-18T00:44:39.743Z,9.20
2019-01-18T00:45:39.726Z,9.40
2019-01-18T00:47:00.704Z,8.00
2019-01-18T00:47:39.670Z,7.10
2019-01-18T00:48:39.649Z,9.80
2019-01-18T00:49:39.632Z,6.70
2019-01-18T00:50:39.600Z,7.50
2019-01-18T00:51:39.585Z,8.40
2019-01-18T00:53:00.572Z,11.10
2019-01-18T00:53:39.539Z,6.40
2019-01-18T00:54:39.508Z,8.90
2019-01-18T00:55:39.493Z,10.40
2019-01-18T00:56:39.468Z,8.90
2019-01-18T00:57:39.445Z,6.60
2019-01-18T00:59:00.416Z,11.50
2019-01-18T00:59:39.402Z,9.80
2019-01-18T01:00:39.367Z,7.50
2019-01-18T01:01:39.352Z,12.50
2019-01-18T01:02:39.319Z,9.00
2019-01-18T01:03:39.296Z,9.00
2019-01-18T01:05:00.273Z,12.30
2019-01-18T01:05:39.257Z,8.40
2019-01-18T01:06:39.234Z,6.00
2019-01-18T01:07:39.211Z,11.00
2019-01-18T01:08:39.179Z,10.60
2019-01-18T01:09:39.155Z,10.90
2019-01-18T01:11:00.148Z,7.40
2019-01-18T01:11:39.116Z,11.10
2019-01-18T01:12:39.094Z,7.50
2019-01-18T01:13:39.059Z,7.70
2019-01-18T01:14:39.036Z,9.80
2019-01-18T01:15:39.013Z,8.90
2019-01-18T01:16:59.999Z,8.20
2019-01-18T01:17:38.966Z,7.60
2019-01-18T01:18:38.944Z,8.90
2019-01-18T01:19:38.928Z,6.80
2019-01-18T01:20:38.894Z,6.10
2019-01-18T01:21:38.870Z,10.70
2019-01-18T01:22:59.859Z,10.50
2019-01-18T01:23:38.834Z,8.10
2019-01-18T01:24:38.812Z,8.30
2019-01-18T01:25:38.786Z,7.40
2019-01-18T01:26:38.754Z,13.30
2019-01-18T01:27:38.738Z,11.60
2019-01-18T01:28:59.709Z,7.80
2019-01-18T01:29:43.068Z,8.90
2019-01-18T01:30:38.669Z,8.70
2019-01-18T01:31:38.645Z,9.20
2019-01-18T01:32:38.623Z,10.20
2019-01-18T01:33:38.596Z,7.00
2019-01-18T01:34:59.583Z,6.90
2019-01-18T01:35:38.546Z,8.10
2019-01-18T01:36:38.518Z,12.70
2019-01-18T01:37:38.504Z,11.30
2019-01-18T01:38:38.475Z,11.60
2019-01-18T01:39:38.455Z,7.20
2019-01-18T01:40:59.433Z,8.20
2019-01-18T01:41:38.410Z,10.20
2019-01-18T01:42:38.387Z,5.80
2019-01-18T01:43:38.353Z,4.20
2019-01-18T01:44:38.332Z,8.60
2019-01-18T01:45:38.315Z,8.30
2019-01-18T01:46:59.300Z,16.20
2019-01-18T01:47:38.267Z,11.70
2019-01-18T01:48:38.244Z,7.80
2019-01-18T01:49:38.223Z,7.50
2019-01-18T01:50:38.188Z,13.30
2019-01-18T01:51:38.164Z,7.40
2019-01-18T01:52:59.142Z,15.80
2019-01-18T01:53:38.127Z,8.60
2019-01-18T01:54:38.115Z,9.40
2019-01-18T01:55:38.084Z,6.80
2019-01-18T01:56:38.059Z,9.60
2019-01-18T01:57:38.024Z,10.90
2019-01-18T01:58:59.010Z,10.70
2019-01-18T01:59:37.975Z,7.50
2019-01-18T02:00:37.952Z,11.30
2019-01-18T02:01:37.921Z,14.40
2019-01-18T02:02:37.895Z,13.30
2019-01-18T02:03:37.870Z,15.60
2019-01-18T02:04:58.857Z,11.10
2019-01-18T02:05:37.823Z,16.00
2019-01-18T02:06:37.810Z,10.90
2019-01-18T02:07:37.777Z,16.40
2019-01-18T02:08:37.762Z,12.50
2019-01-18T02:09:37.741Z,12.30
2019-01-18T02:10:58.715Z,12.10
2019-01-18T02:11:37.691Z,7.90
2019-01-18T02:12:37.656Z,11.40
2019-01-18T02:13:37.642Z,15.60
2019-01-18T02:14:37.620Z,12.10
2019-01-18T02:15:37.595Z,9.40
2019-01-18T02:16:58.572Z,8.70
2019-01-18T02:17:37.537Z,8.40
2019-01-18T02:18:37.519Z,17.20
2019-01-18T02:19:37.507Z,11.50
2019-01-18T02:20:37.480Z,13.10
2019-01-18T02:21:37.525Z,17.90
2019-01-18T02:22:58.418Z,13.60
2019-01-18T02:23:37.407Z,9.40
2019-01-18T02:24:37.387Z,15.30
2019-01-18T02:25:37.378Z,14.80
2019-01-18T02:26:37.345Z,18.50
2019-01-18T02:27:37.308Z,9.30
2019-01-18T02:28:58.287Z,10.90
2019-01-18T02:29:37.251Z,13.90
2019-01-18T02:30:37.250Z,12.60
2019-01-18T02:31:37.221Z,12.60
2019-01-18T02:32:37.189Z,13.30
2019-01-18T02:33:37.165Z,11.20
2019-01-18T02:34:58.132Z,13.30
2019-01-18T02:35:37.118Z,12.60
2019-01-18T02:36:37.083Z,20.30
2019-01-18T02:37:37.085Z,14.80
2019-01-18T02:38:37.055Z,18.20
2019-01-18T02:39:37.023Z,18.70
2019-01-18T02:40:57.996Z,14.30
2019-01-18T02:41:36.966Z,14.90
2019-01-18T02:42:36.944Z,9.80
2019-01-18T02:43:36.931Z,11.80
2019-01-18T02:44:36.896Z,13.30
2019-01-18T02:45:36.888Z,8.80
2019-01-18T02:46:57.844Z,10.80
2019-01-18T02:47:36.821Z,12.90
2019-01-18T02:48:36.798Z,9.90
2019-01-18T02:49:36.782Z,11.00
2019-01-18T02:50:36.748Z,11.40
2019-01-18T02:51:36.738Z,10.60
2019-01-18T02:52:57.708Z,12.20
2019-01-18T02:53:36.676Z,12.20
2019-01-18T02:54:36.665Z,9.60
2019-01-18T02:55:36.640Z,10.20
2019-01-18T02:56:36.604Z,8.20
2019-01-18T02:57:36.579Z,13.80
2019-01-18T02:58:57.556Z,17.70
2019-01-18T02:59:36.542Z,12.00
2019-01-18T03:00:36.505Z,9.90
2019-01-18T03:01:36.495Z,11.70
2019-01-18T03:02:36.477Z,16.50
2019-01-18T03:03:36.446Z,18.30
2019-01-18T03:04:57.410Z,14.80
2019-01-18T03:05:36.396Z,11.40
2019-01-18T03:06:36.363Z,16.50
2019-01-18T03:07:36.358Z,10.70
2019-01-18T03:08:36.324Z,12.50
2019-01-18T03:09:36.296Z,10.70
2019-01-18T03:10:57.279Z,12.50
2019-01-18T03:11:36.253Z,17.20
2019-01-18T03:12:36.220Z,11.10
2019-01-18T03:13:36.207Z,17.30
2019-01-18T03:14:36.181Z,11.20
2019-01-18T03:15:36.148Z,17.30
2019-01-18T03:16:57.123Z,12.40
2019-01-18T03:17:36.099Z,12.20
2019-01-18T03:18:36.089Z,10.80
2019-01-18T03:19:36.051Z,15.90
2019-01-18T03:20:36.038Z,11.70
2019-01-18T03:21:36.012Z,10.40
2019-01-18T03:22:56.989Z,15.20
2019-01-18T03:23:35.964Z,9.00
2019-01-18T03:24:35.945Z,15.30
2019-01-18T03:25:35.917Z,12.50
2019-01-18T03:26:35.893Z,11.60
2019-01-18T03:27:35.881Z,15.30
2019-01-18T03:28:56.854Z,16.40
2019-01-18T03:29:35.821Z,11.00
2019-01-18T03:30:35.808Z,12.00
2019-01-18T03:31:35.785Z,16.90
2019-01-18T03:32:35.763Z,12.70
2019-01-18T03:33:35.727Z,15.10
2019-01-18T03:34:56.711Z,15.00
2019-01-18T03:35:35.676Z,13.20
2019-01-18T03:36:35.651Z,13.60
2019-01-18T03:37:35.636Z,15.10
2019-01-18T03:38:35.615Z,14.90
2019-01-18T03:39:35.583Z,12.00
2019-01-18T03:40:56.564Z,12.80
2019-01-18T03:41:35.534Z,18.10
2019-01-18T03:42:35.506Z,11.50
2019-01-18T03:43:35.485Z,17.30
2019-01-18T03:44:35.459Z,14.10
2019-01-18T03:45:35.437Z,9.30
2019-01-18T03:46:56.426Z,16.20
2019-01-18T03:47:35.397Z,14.10
2019-01-18T03:48:35.373Z,13.00
2019-01-18T03:49:35.347Z,17.40
2019-01-18T03:50:35.315Z,17.80
2019-01-18T03:51:35.290Z,12.10
2019-01-18T03:52:56.265Z,11.30
2019-01-18T03:53:35.248Z,11.70
2019-01-18T03:54:35.231Z,9.00
2019-01-18T03:55:35.194Z,9.40
2019-01-18T03:56:35.169Z,13.50
2019-01-18T03:57:35.154Z,10.30
2019-01-18T03:58:56.121Z,11.70
2019-01-18T03:59:35.095Z,11.50
2019-01-18T04:00:35.071Z,9.40
2019-01-18T04:01:35.058Z,16.50
2019-01-18T04:02:35.024Z,16.50
2019-01-18T04:03:35.007Z,13.20
2019-01-18T04:04:55.982Z,12.10
2019-01-18T04:05:34.967Z,11.10
2019-01-18T04:06:34.935Z,14.50
2019-01-18T04:07:34.901Z,11.50
2019-01-18T04:08:34.876Z,14.60
2019-01-18T04:09:34.864Z,13.60
2019-01-18T04:10:55.835Z,14.10
2019-01-18T04:11:34.805Z,15.20
2019-01-18T04:12:34.781Z,14.20
2019-01-18T04:13:34.757Z,18.00
2019-01-18T04:14:34.734Z,10.30
2019-01-18T04:15:34.706Z,11.80
2019-01-18T04:16:55.691Z,11.10
2019-01-18T04:17:34.668Z,12.00
2019-01-18T04:18:34.644Z,15.40
2019-01-18T04:19:34.609Z,15.10
2019-01-18T04:20:34.593Z,11.60
2019-01-18T04:21:34.561Z,14.90
2019-01-18T04:22:55.547Z,12.20
2019-01-18T04:23:34.522Z,14.80
2019-01-18T04:24:34.490Z,20.30
2019-01-18T04:25:34.470Z,15.10
2019-01-18T04:26:34.440Z,13.10
2019-01-18T04:27:34.415Z,12.00
2019-01-18T04:28:55.388Z,11.50
2019-01-18T04:29:34.366Z,10.80
2019-01-18T04:30:34.342Z,17.00
2019-01-18T04:31:34.325Z,12.50
2019-01-18T04:32:34.300Z,13.40
2019-01-18T04:33:34.267Z,14.90
2019-01-18T04:34:55.243Z,12.50
2019-01-18T04:35:34.233Z,14.10
2019-01-18T04:36:34.195Z,11.20
2019-01-18T04:37:34.170Z,15.10
2019-01-18T04:38:34.160Z,14.40
2019-01-18T04:39:34.131Z,12.10
2019-01-18T04:40:55.106Z,12.10
2019-01-18T04:41:34.072Z,11.80
2019-01-18T04:42:34.058Z,12.50
2019-01-18T04:43:34.035Z,9.30
2019-01-18T04:44:34.000Z,14.00
2019-01-18T04:45:33.974Z,12.10
2019-01-18T04:46:54.963Z,12.30
2019-01-18T04:47:33.929Z,18.50
2019-01-18T04:48:33.901Z,11.60
2019-01-18T04:49:33.878Z,12.70
2019-01-18T04:50:33.863Z,13.90
2019-01-18T04:51:33.829Z,16.50
2019-01-18T04:52:54.802Z,22.20
2019-01-18T04:53:33.788Z,14.00
2019-01-18T04:54:33.766Z,14.10
2019-01-18T04:55:33.729Z,15.90
2019-01-18T04:56:33.709Z,11.00
2019-01-18T04:57:33.691Z,11.10
2019-01-18T04:58:54.665Z,10.40
2019-01-18T04:59:33.637Z,14.10
2019-01-18T05:00:40.210Z,16.00
2019-01-18T05:01:33.584Z,15.80
2019-01-18T05:02:33.569Z,16.80
2019-01-18T05:03:33.536Z,11.10
2019-01-18T05:04:54.511Z,12.70
2019-01-18T05:05:33.497Z,15.00
2019-01-18T05:06:33.472Z,12.70
2019-01-18T05:07:33.448Z,18.20
2019-01-18T05:08:33.414Z,12.10
2019-01-18T05:09:33.389Z,18.00
2019-01-18T05:10:54.373Z,13.50
2019-01-18T05:11:33.348Z,15.60
2019-01-18T05:12:33.324Z,13.20
2019-01-18T05:13:33.301Z,10.90
2019-01-18T05:14:33.268Z,15.60
2019-01-18T05:15:33.290Z,13.70
2019-01-18T05:16:54.215Z,16.20
2019-01-18T05:17:33.192Z,13.20
2019-01-18T05:18:33.167Z,16.70
2019-01-18T05:19:33.153Z,14.50
2019-01-18T05:20:33.121Z,18.90
2019-01-18T05:21:33.117Z,14.30
2019-01-18T05:22:54.072Z,14.10
2019-01-18T05:23:33.046Z,15.00
2019-01-18T05:24:33.022Z,14.50
2019-01-18T05:25:32.998Z,15.20
2019-01-18T05:26:32.976Z,11.50
2019-01-18T05:27:32.948Z,11.40
2019-01-18T05:28:53.931Z,20.80
2019-01-18T05:29:32.908Z,14.60
2019-01-18T05:30:32.877Z,11.80
2019-01-18T05:31:32.850Z,15.50
2019-01-18T05:32:32.838Z,19.20
2019-01-18T05:33:32.800Z,16.90
2019-01-18T05:34:53.787Z,10.70
2019-01-18T05:35:32.765Z,15.60
2019-01-18T05:36:32.736Z,13.10
2019-01-18T05:37:32.715Z,13.40
2019-01-18T05:38:32.680Z,15.90
2019-01-18T05:39:32.656Z,14.10
2019-01-18T05:40:53.628Z,15.20
2019-01-18T05:41:32.616Z,14.30
2019-01-18T05:42:32.579Z,13.60
2019-01-18T05:43:32.556Z,18.60
2019-01-18T05:44:32.531Z,16.70
2019-01-18T05:45:32.522Z,12.90
2019-01-18T05:46:53.482Z,14.70
2019-01-18T05:47:32.468Z,16.10
2019-01-18T05:48:32.436Z,16.30
2019-01-18T05:49:32.409Z,12.20
2019-01-18T05:50:32.393Z,15.30
2019-01-18T05:51:32.371Z,15.40
2019-01-18T05:52:53.335Z,13.90
2019-01-18T05:53:32.323Z,15.50
2019-01-18T05:54:32.290Z,13.30
2019-01-18T05:55:32.271Z,12.20
2019-01-18T05:56:32.247Z,14.40
2019-01-18T05:57:32.224Z,12.70
2019-01-18T05:58:53.201Z,17.30
2019-01-18T05:59:32.167Z,19.40
2019-01-18T06:00:32.147Z,14.30
2019-01-18T06:01:32.125Z,14.00
2019-01-18T06:02:32.088Z,18.00
2019-01-18T06:03:32.066Z,21.20
2019-01-18T06:04:53.053Z,11.10
2019-01-18T06:05:32.014Z,14.60
2019-01-18T06:06:32.000Z,17.20
2019-01-18T06:07:31.968Z,15.40
2019-01-18T06:08:31.953Z,15.70
2019-01-18T06:09:31.927Z,16.90
2019-01-18T06:10:52.894Z,22.30
2019-01-18T06:11:31.871Z,17.70
2019-01-18T06:12:31.852Z,17.50
2019-01-18T06:13:31.869Z,15.60
2019-01-18T06:14:31.806Z,15.50
2019-01-18T06:15:31.774Z,19.70
2019-01-18T06:16:52.742Z,16.60
2019-01-18T06:17:31.728Z,17.00
2019-01-18T06:18:31.704Z,19.80
2019-01-18T06:19:31.674Z,14.20
2019-01-18T06:20:31.644Z,13.60
2019-01-18T06:21:31.620Z,15.30
2019-01-18T06:22:52.600Z,15.00
2019-01-18T06:23:31.591Z,16.60
2019-01-18T06:24:31.548Z,16.30
2019-01-18T06:25:31.532Z,19.80
2019-01-18T06:26:31.508Z,19.00
2019-01-18T06:27:31.474Z,25.40
2019-01-18T06:28:52.461Z,19.60
2019-01-18T06:29:31.426Z,14.00
2019-01-18T06:30:31.407Z,15.10
2019-01-18T06:31:31.375Z,13.60
2019-01-18T06:32:31.358Z,19.50
2019-01-18T06:33:31.336Z,13.90
2019-01-18T06:34:52.315Z,14.10
2019-01-18T06:35:31.291Z,16.00
2019-01-18T06:36:31.263Z,19.30
2019-01-18T06:37:31.226Z,13.10
2019-01-18T06:38:31.200Z,13.60
2019-01-18T06:39:31.181Z,17.20
2019-01-18T06:40:52.150Z,13.00
2019-01-18T06:41:31.138Z,18.90
2019-01-18T06:42:31.111Z,14.20
2019-01-18T06:43:31.078Z,26.20
2019-01-18T06:44:31.063Z,18.90
2019-01-18T06:45:31.034Z,15.80
2019-01-18T06:46:52.005Z,25.80
2019-01-18T06:47:30.993Z,15.20
2019-01-18T06:48:30.953Z,13.40
2019-01-18T06:49:30.943Z,18.90
2019-01-18T06:50:30.903Z,18.90
2019-01-18T06:51:30.880Z,16.30
2019-01-18T06:52:51.864Z,24.00
2019-01-18T06:53:30.833Z,16.20
2019-01-18T06:54:30.825Z,18.70
2019-01-18T06:55:30.782Z,18.40
2019-01-18T06:56:30.767Z,16.80
2019-01-18T06:57:30.740Z,31.10
2019-01-18T06:58:51.746Z,16.90
2019-01-18T06:59:30.740Z,15.00
2019-01-18T07:00:30.667Z,19.30
2019-01-18T07:01:30.638Z,17.80
2019-01-18T07:02:30.606Z,16.80
2019-01-18T07:03:30.581Z,20.50
2019-01-18T07:04:51.563Z,19.70
2019-01-18T07:05:30.531Z,21.00
2019-01-18T07:06:30.517Z,14.20
2019-01-18T07:07:30.494Z,18.10
2019-01-18T07:08:30.467Z,16.60
2019-01-18T07:09:30.470Z,19.60
2019-01-18T07:10:51.420Z,21.40
2019-01-18T07:11:30.396Z,14.50
2019-01-18T07:12:30.360Z,18.30
2019-01-18T07:13:30.337Z,14.20
2019-01-18T07:14:30.846Z,18.30
2019-01-18T07:15:30.298Z,19.90
2019-01-18T07:16:51.258Z,19.00
2019-01-18T07:17:30.234Z,14.80
2019-01-18T07:18:30.210Z,18.20
2019-01-18T07:19:30.185Z,17.80
2019-01-18T07:20:30.169Z,20.40
2019-01-18T07:21:30.135Z,18.10
2019-01-18T07:22:51.110Z,24.20
2019-01-18T07:23:30.100Z,16.90
2019-01-18T07:24:30.087Z,18.50
2019-01-18T07:25:30.045Z,14.70
2019-01-18T07:26:30.020Z,17.80
2019-01-18T07:27:29.987Z,15.60
2019-01-18T07:28:51.814Z,10.80
2019-01-18T07:29:29.951Z,15.60
2019-01-18T07:30:29.927Z,17.60
2019-01-18T07:31:30.114Z,17.60
2019-01-18T07:32:29.872Z,13.40
2019-01-18T07:33:29.852Z,19.00
2019-01-18T07:34:50.824Z,16.80
2019-01-18T07:35:29.789Z,15.70
2019-01-18T07:36:29.772Z,15.40
2019-01-18T07:37:29.739Z,14.60
2019-01-18T07:38:29.713Z,12.70
2019-01-18T07:39:29.691Z,16.00
2019-01-18T07:40:50.672Z,11.50
2019-01-18T07:41:29.640Z,15.80
2019-01-18T07:42:29.623Z,16.20
2019-01-18T07:43:29.600Z,18.90
2019-01-18T07:44:29.575Z,20.90
2019-01-18T07:45:29.549Z,15.20
2019-01-18T07:46:50.524Z,16.40
2019-01-18T07:47:29.499Z,15.90
2019-01-18T07:48:29.467Z,13.60
2019-01-18T07:49:29.456Z,16.10
2019-01-18T07:50:29.420Z,15.90
2019-01-18T07:51:29.407Z,20.80
2019-01-18T07:52:50.377Z,16.30
2019-01-18T07:53:29.344Z,15.00
2019-01-18T07:54:29.332Z,17.20
2019-01-18T07:55:29.302Z,16.90
2019-01-18T07:56:29.285Z,19.60
2019-01-18T07:57:29.271Z,12.70
2019-01-18T07:58:50.310Z,20.00
2019-01-18T07:59:31.413Z,11.30
2019-01-18T08:00:29.886Z,14.50
2019-01-18T08:01:29.153Z,28.60
2019-01-18T08:02:29.147Z,17.10
2019-01-18T08:03:29.106Z,19.40
2019-01-18T08:04:50.080Z,18.30
2019-01-18T08:05:29.055Z,14.70
2019-01-18T08:06:29.025Z,15.50
2019-01-18T08:07:29.000Z,15.30
2019-01-18T08:08:28.984Z,19.30
2019-01-18T08:09:29.043Z,19.70
2019-01-18T08:10:49.933Z,13.30
2019-01-18T08:11:28.902Z,23.10
2019-01-18T08:12:28.879Z,16.60
2019-01-18T08:13:28.852Z,17.20
2019-01-18T08:14:28.834Z,16.10
2019-01-18T08:15:28.808Z,16.60
2019-01-18T08:16:49.787Z,13.20
2019-01-18T08:17:28.755Z,14.70
2019-01-18T08:18:28.741Z,13.20
2019-01-18T08:19:28.716Z,13.60
2019-01-18T08:20:28.677Z,14.40
2019-01-18T08:21:28.657Z,13.80
2019-01-18T08:22:49.640Z,10.40
2019-01-18T08:23:28.623Z,18.30
2019-01-18T08:24:28.582Z,15.00
2019-01-18T08:25:28.558Z,15.40
2019-01-18T08:26:28.539Z,17.40
2019-01-18T08:27:28.514Z,16.50
2019-01-18T08:28:49.489Z,14.00
2019-01-18T08:29:28.474Z,10.30
2019-01-18T08:30:28.442Z,13.00
2019-01-18T08:31:29.124Z,13.40
2019-01-18T08:32:28.395Z,15.90
2019-01-18T08:33:28.358Z,14.60
2019-01-18T08:34:49.336Z,15.80
2019-01-18T08:35:28.322Z,15.10
2019-01-18T08:36:28.288Z,15.50
2019-01-18T08:37:28.262Z,21.20
2019-01-18T08:38:28.239Z,18.70
2019-01-18T08:39:28.228Z,15.70
2019-01-18T08:40:49.197Z,13.70
2019-01-18T08:41:28.163Z,13.30
2019-01-18T08:42:28.233Z,12.10
2019-01-18T08:43:28.113Z,12.20
2019-01-18T08:44:28.104Z,12.80
2019-01-18T08:45:28.069Z,17.50
2019-01-18T08:46:49.042Z,11.20
2019-01-18T08:47:28.019Z,12.30
2019-01-18T08:48:28.003Z,12.10
2019-01-18T08:49:27.973Z,12.90
2019-01-18T08:50:27.946Z,13.00
2019-01-18T08:51:27.926Z,13.40
2019-01-18T08:52:48.907Z,9.40
2019-01-18T08:53:27.882Z,14.70
2019-01-18T08:54:27.861Z,12.40
2019-01-18T08:55:27.840Z,14.30
2019-01-18T08:56:27.815Z,12.10
2019-01-18T08:57:27.784Z,13.80
2019-01-18T08:58:48.760Z,14.60
2019-01-18T08:59:27.732Z,14.30
2019-01-18T09:00:27.719Z,11.40
2019-01-18T09:01:27.692Z,13.90
2019-01-18T09:02:27.667Z,13.00
2019-01-18T09:03:27.631Z,10.50
2019-01-18T09:04:48.608Z,10.70
2019-01-18T09:05:27.593Z,11.90
2019-01-18T09:06:27.562Z,10.60
2019-01-18T09:07:27.544Z,10.70
2019-01-18T09:08:27.509Z,11.80
2019-01-18T09:09:27.488Z,11.90
2019-01-18T09:10:48.480Z,10.50
2019-01-18T09:11:27.461Z,11.30
2019-01-18T09:12:27.413Z,14.10
2019-01-18T09:13:27.390Z,12.70
2019-01-18T09:14:27.370Z,11.10
2019-01-18T09:15:27.342Z,9.50
2019-01-18T09:16:48.333Z,9.90
2019-01-18T09:17:27.332Z,12.50
2019-01-18T09:18:27.284Z,15.70
2019-01-18T09:19:27.259Z,11.40
2019-01-18T09:20:27.226Z,12.10
2019-01-18T09:21:27.201Z,15.20
2019-01-18T09:22:48.208Z,11.10
2019-01-18T09:23:27.161Z,10.60
2019-01-18T09:24:27.138Z,14.40
2019-01-18T09:25:27.109Z,14.10
2019-01-18T09:26:27.083Z,8.50
2019-01-18T09:27:27.068Z,9.80
2019-01-18T09:28:48.031Z,12.90
2019-01-18T09:29:27.015Z,12.40
2019-01-18T09:30:26.982Z,11.60
2019-01-18T09:31:26.965Z,15.50
2019-01-18T09:32:26.941Z,10.00
2019-01-18T09:33:26.932Z,11.90
2019-01-18T09:34:47.899Z,10.50
2019-01-18T09:35:26.871Z,14.60
2019-01-18T09:36:26.846Z,14.10
2019-01-18T09:37:26.819Z,12.70
2019-01-18T09:38:26.798Z,17.00
2019-01-18T09:39:26.781Z,11.40
2019-01-18T09:40:47.747Z,13.40
2019-01-18T09:41:26.727Z,12.80
2019-01-18T09:42:26.699Z,10.30
2019-01-18T09:43:26.691Z,13.60
2019-01-18T09:44:26.654Z,13.20
2019-01-18T09:45:26.637Z,10.00
2019-01-18T09:46:47.620Z,13.00
2019-01-18T09:47:26.591Z,14.50
2019-01-18T09:48:26.570Z,11.30
2019-01-18T09:49:26.540Z,12.50
2019-01-18T09:50:26.522Z,9.00
2019-01-18T09:51:26.487Z,9.90
2019-01-18T09:52:47.480Z,12.10
2019-01-18T09:53:26.449Z,10.00
2019-01-18T09:54:26.431Z,10.10
2019-01-18T09:55:26.405Z,13.60
2019-01-18T09:56:26.368Z,18.40
2019-01-18T09:57:26.349Z,10.70
2019-01-18T09:58:47.327Z,13.10
2019-01-18T09:59:26.403Z,10.30
2019-01-18T10:00:26.287Z,15.00
2019-01-18T10:01:26.252Z,10.70
2019-01-18T10:02:26.229Z,11.80
2019-01-18T10:03:26.208Z,19.20
2019-01-18T10:04:47.181Z,18.90
2019-01-18T10:05:26.169Z,11.30
2019-01-18T10:06:26.138Z,10.10
2019-01-18T10:07:26.114Z,12.90
2019-01-18T10:08:26.087Z,8.90
2019-01-18T10:09:26.063Z,11.20
2019-01-18T10:10:47.049Z,9.40
2019-01-18T10:11:26.021Z,9.20
2019-01-18T10:12:25.996Z,9.70
2019-01-18T10:13:26.006Z,10.80
2019-01-18T10:14:25.948Z,5.80
2019-01-18T10:15:25.933Z,10.20
2019-01-18T10:16:46.909Z,12.30
2019-01-18T10:17:25.877Z,10.20
2019-01-18T10:18:25.856Z,10.30
2019-01-18T10:19:25.830Z,10.40
2019-01-18T10:20:25.807Z,9.30
2019-01-18T10:21:25.792Z,14.10
2019-01-18T10:22:46.781Z,8.90
2019-01-18T10:23:25.751Z,9.20
2019-01-18T10:24:25.725Z,16.30
2019-01-18T10:25:25.711Z,10.20
2019-01-18T10:26:25.677Z,10.60
2019-01-18T10:27:25.685Z,8.50
2019-01-18T10:28:46.630Z,8.10
2019-01-18T10:29:28.218Z,11.40
2019-01-18T10:30:25.585Z,10.30
2019-01-18T10:31:25.564Z,9.30
2019-01-18T10:32:25.547Z,12.10
2019-01-18T10:33:25.520Z,10.30
2019-01-18T10:34:46.489Z,7.80
2019-01-18T10:35:25.476Z,8.00
2019-01-18T10:36:25.448Z,9.90
2019-01-18T10:37:25.439Z,9.90
2019-01-18T10:38:25.398Z,8.60
2019-01-18T10:39:25.410Z,10.40
2019-01-18T10:40:46.367Z,7.00
2019-01-18T10:41:25.344Z,11.10
2019-01-18T10:42:25.323Z,9.10
2019-01-18T10:43:25.279Z,12.60
2019-01-18T10:44:25.254Z,10.00
2019-01-18T10:45:25.233Z,16.60
2019-01-18T10:46:46.213Z,14.40
2019-01-18T10:47:25.194Z,10.20
2019-01-18T10:48:25.176Z,10.00
2019-01-18T10:49:25.140Z,14.10
2019-01-18T10:50:25.127Z,10.20
2019-01-18T10:51:25.095Z,8.50
2019-01-18T10:52:46.085Z,8.50
2019-01-18T10:53:25.058Z,12.50
2019-01-18T10:54:25.138Z,11.40
2019-01-18T10:55:25.011Z,10.30
2019-01-18T10:56:24.978Z,11.90
2019-01-18T10:57:24.957Z,11.40
2019-01-18T10:58:45.949Z,11.80
2019-01-18T10:59:24.911Z,11.50
2019-01-18T11:00:24.899Z,13.80
2019-01-18T11:01:24.867Z,9.70
2019-01-18T11:02:24.855Z,11.80
2019-01-18T11:03:24.832Z,12.70
2019-01-18T11:04:45.797Z,19.00
2019-01-18T11:05:24.782Z,14.40
2019-01-18T11:06:24.772Z,14.40
2019-01-18T11:07:24.744Z,17.00
2019-01-18T11:08:24.709Z,16.00
2019-01-18T11:09:24.694Z,17.40
2019-01-18T11:10:45.662Z,16.00
2019-01-18T11:11:24.637Z,14.00
2019-01-18T11:12:24.613Z,15.50
2019-01-18T11:13:24.605Z,13.00
2019-01-18T11:14:24.627Z,14.60
2019-01-18T11:15:24.561Z,19.00
2019-01-18T11:16:45.523Z,14.90
2019-01-18T11:17:24.502Z,12.30
2019-01-18T11:18:24.488Z,14.00
2019-01-18T11:19:24.475Z,15.60
2019-01-18T11:20:24.445Z,13.90
2019-01-18T11:21:24.410Z,15.40
2019-01-18T11:22:45.389Z,22.30
2019-01-18T11:23:24.367Z,20.00
2019-01-18T11:24:24.413Z,21.00
2019-01-18T11:25:24.320Z,16.70
2019-01-18T11:26:24.305Z,20.20
2019-01-18T11:27:24.990Z,16.10
2019-01-18T11:28:45.254Z,18.60
2019-01-18T11:29:24.241Z,16.30
2019-01-18T11:30:24.206Z,15.60
2019-01-18T11:31:24.197Z,23.60
2019-01-18T11:32:24.168Z,18.10
2019-01-18T11:33:24.139Z,21.40
2019-01-18T11:34:45.131Z,18.10
2019-01-18T11:35:24.113Z,17.90
2019-01-18T11:36:24.086Z,14.60
2019-01-18T11:37:24.060Z,17.20
2019-01-18T11:38:24.039Z,12.10
2019-01-18T11:39:24.027Z,22.30
2019-01-18T11:40:44.997Z,20.30
2019-01-18T11:41:23.976Z,16.20
2019-01-18T11:42:23.949Z,23.90
2019-01-18T11:43:23.933Z,23.70
2019-01-18T11:44:23.906Z,16.90
2019-01-18T11:45:23.879Z,13.90
2019-01-18T11:46:44.871Z,18.70
2019-01-18T11:47:23.831Z,16.00
2019-01-18T11:48:23.807Z,18.70
2019-01-18T11:49:23.788Z,19.20
2019-01-18T11:50:23.771Z,14.20
2019-01-18T11:51:23.737Z,15.50
2019-01-18T11:52:44.716Z,15.10
2019-01-18T11:53:23.698Z,15.00
2019-01-18T11:54:23.763Z,19.10
2019-01-18T11:55:23.658Z,22.40
2019-01-18T11:56:23.643Z,18.50
2019-01-18T11:57:23.612Z,12.80
2019-01-18T11:58:44.625Z,12.60
2019-01-18T11:59:23.568Z,15.10
2019-01-18T12:00:23.537Z,15.40
2019-01-18T12:01:23.515Z,16.60
2019-01-18T12:02:23.501Z,20.50
2019-01-18T12:03:23.475Z,16.10
2019-01-18T12:04:44.459Z,18.30
2019-01-18T12:05:23.452Z,14.90
2019-01-18T12:06:23.406Z,21.10
2019-01-18T12:07:23.400Z,21.60
2019-01-18T12:08:23.359Z,17.00
2019-01-18T12:09:23.335Z,19.40
2019-01-18T12:10:44.319Z,20.80
2019-01-18T12:11:23.904Z,17.40
2019-01-18T12:12:23.319Z,16.80
2019-01-18T12:13:24.405Z,13.60
2019-01-18T12:14:23.236Z,15.40
2019-01-18T12:15:23.219Z,13.60
2019-01-18T12:16:44.191Z,18.00
2019-01-18T12:17:23.162Z,17.90
2019-01-18T12:18:23.139Z,16.90
2019-01-18T12:19:23.132Z,21.00
2019-01-18T12:20:23.096Z,19.50
2019-01-18T12:21:23.074Z,20.50
2019-01-18T12:22:44.061Z,16.90
2019-01-18T12:23:23.046Z,17.30
2019-01-18T12:24:23.026Z,14.60
2019-01-18T12:25:22.994Z,17.60
2019-01-18T12:26:22.973Z,13.10
2019-01-18T12:27:22.954Z,18.80
2019-01-18T12:28:43.928Z,18.70
2019-01-18T12:29:23.041Z,17.40
2019-01-18T12:30:22.888Z,14.60
2019-01-18T12:31:22.854Z,14.90
2019-01-18T12:32:28.622Z,23.60
2019-01-18T12:33:22.805Z,16.00
2019-01-18T12:34:43.790Z,16.80
2019-01-18T12:35:22.775Z,20.10
2019-01-18T12:36:22.743Z,22.20
2019-01-18T12:37:22.726Z,20.80
2019-01-18T12:38:22.697Z,18.50
2019-01-18T12:39:22.689Z,22.80
2019-01-18T12:40:43.674Z,18.70
2019-01-18T12:41:22.643Z,23.70
2019-01-18T12:42:22.623Z,19.50
2019-01-18T12:43:22.599Z,20.10
2019-01-18T12:44:22.572Z,16.50
2019-01-18T12:45:22.553Z,25.90
2019-01-18T12:46:43.525Z,19.70
2019-01-18T12:47:22.502Z,26.90
2019-01-18T12:48:22.488Z,24.40
2019-01-18T12:49:22.469Z,20.60
2019-01-18T12:50:22.452Z,23.50
2019-01-18T12:51:22.425Z,22.20
2019-01-18T12:52:43.401Z,17.90
2019-01-18T12:53:22.368Z,23.50
2019-01-18T12:54:22.360Z,24.40
2019-01-18T12:55:22.331Z,20.40
2019-01-18T12:56:22.305Z,19.50